createdAt,value
2024-03-14T00:01:54.087Z,99314.23
2024-03-14T00:04:24.317Z,99314.70
2024-03-14T00:06:53.511Z,99315.30
2024-03-14T00:09:24.526Z,99315.57
2024-03-14T00:11:53.552Z,99315.06
2024-03-14T00:14:22.879Z,99310.55
2024-03-14T00:16:54.630Z,99311.36
2024-03-14T00:19:23.969Z,99309.78
2024-03-14T00:21:52.824Z,99306.09
2024-03-14T00:24:22.099Z,99304.40
2024-03-14T00:26:51.044Z,99304.82
2024-03-14T00:29:20.992Z,99301.47
2024-03-14T00:31:53.990Z,99300.91
2024-03-14T00:34:22.816Z,99303.15
2024-03-14T00:36:52.106Z,99300.27
2024-03-14T00:39:21.146Z,99299.14
2024-03-14T00:41:53.489Z,99298.91
2024-03-14T00:44:22.693Z,99292.31
2024-03-14T00:46:53.750Z,99292.45
2024-03-14T00:49:24.986Z,99294.06
2024-03-14T00:51:53.774Z,99289.37
2024-03-14T00:54:22.566Z,99289.55
2024-03-14T00:56:51.825Z,99292.41
2024-03-14T00:59:20.608Z,99285.48
2024-03-14T01:01:49.691Z,99287.67
2024-03-14T01:04:19.394Z,99282.76
2024-03-14T01:06:49.208Z,99280.84
2024-03-14T01:09:18.386Z,99281.23
2024-03-14T01:11:47.406Z,99277.99
2024-03-14T01:14:16.455Z,99278.85
2024-03-14T01:16:45.338Z,99283.06
2024-03-14T01:19:14.351Z,99277.73
2024-03-14T01:21:45.060Z,99274.33
2024-03-14T01:24:14.212Z,99274.71
2024-03-14T01:26:43.928Z,99273.36
2024-03-14T01:29:13.320Z,99269.63
2024-03-14T01:31:42.553Z,99266.59
2024-03-14T01:34:11.493Z,99267.02
2024-03-14T01:36:40.841Z,99261.67
2024-03-14T01:39:13.164Z,99260.56
2024-03-14T01:41:42.785Z,99264.70
2024-03-14T01:44:11.847Z,99264.48
2024-03-14T01:46:41.052Z,99260.95
2024-03-14T01:49:09.866Z,99259.88
2024-03-14T01:51:39.069Z,99256.38
2024-03-14T01:54:08.263Z,99257.69
2024-03-14T01:56:46.455Z,99251.80
2024-03-14T01:59:15.386Z,99256.80
2024-03-14T02:01:44.277Z,99254.91
2024-03-14T02:04:23.819Z,99255.55
2024-03-14T02:07:07.734Z,99255.65
2024-03-14T02:09:37.728Z,99256.02
2024-03-14T02:12:07.802Z,99255.14
2024-03-14T02:14:37.776Z,99254.58
2024-03-14T02:17:06.555Z,99255.84
2024-03-14T02:19:35.545Z,99253.96
2024-03-14T02:22:05.467Z,99252.48
2024-03-14T02:24:34.735Z,99255.92
2024-03-14T02:27:08.461Z,99255.92
2024-03-14T02:29:37.329Z,99252.31
2024-03-14T02:32:06.716Z,99249.74
2024-03-14T02:34:36.152Z,99249.18
2024-03-14T02:37:04.959Z,99246.94
2024-03-14T02:39:34.323Z,99249.89
2024-03-14T02:42:03.650Z,99249.52
2024-03-14T02:44:32.548Z,99247.84
2024-03-14T02:47:51.903Z,99250.24
2024-03-14T02:50:46.678Z,99253.77
2024-03-14T02:53:15.781Z,99255.65
2024-03-14T02:55:45.997Z,99260.85
2024-03-14T02:58:14.792Z,99262.95
2024-03-14T03:00:43.877Z,99260.40
2024-03-14T03:03:12.941Z,99265.20
2024-03-14T03:05:42.020Z,99260.47
2024-03-14T03:08:10.812Z,99258.39
2024-03-14T03:10:39.710Z,99256.69
2024-03-14T03:13:08.795Z,99260.19
2024-03-14T03:15:38.025Z,99257.49
2024-03-14T03:18:09.338Z,99256.15
2024-03-14T03:20:39.923Z,99257.83
2024-03-14T03:23:10.254Z,99255.44
2024-03-14T03:25:40.040Z,99258.48
2024-03-14T03:28:12.232Z,99259.35
2024-03-14T03:30:41.986Z,99260.21
2024-03-14T03:33:18.808Z,99263.56
2024-03-14T03:35:48.424Z,99268.55
2024-03-14T03:38:17.697Z,99265.52
2024-03-14T03:40:46.577Z,99267.17
2024-03-14T03:43:15.686Z,99265.30
2024-03-14T03:45:46.017Z,99260.63
2024-03-14T03:48:14.969Z,99261.02
2024-03-14T03:50:44.243Z,99256.89
2024-03-14T03:53:13.148Z,99252.56
2024-03-14T03:55:44.604Z,99254.77
2024-03-14T03:58:13.798Z,99256.91
2024-03-14T04:00:45.967Z,99254.94
2024-03-14T04:03:18.031Z,99255.02
2024-03-14T04:05:47.507Z,99252.23
2024-03-14T04:08:16.495Z,99254.72
2024-03-14T04:10:45.725Z,99255.64
2024-03-14T04:13:17.069Z,99256.60
2024-03-14T04:15:48.249Z,99258.23
2024-03-14T04:18:17.284Z,99260.58
2024-03-14T04:20:48.089Z,99262.69
2024-03-14T04:23:17.537Z,99266.21
2024-03-14T04:25:46.759Z,99265.52
2024-03-14T04:28:15.669Z,99267.81
2024-03-14T04:30:44.487Z,99272.90
2024-03-14T04:33:14.683Z,99269.40
2024-03-14T04:35:43.804Z,99270.20
2024-03-14T04:38:12.671Z,99270.98
2024-03-14T04:40:41.672Z,99270.60
2024-03-14T04:43:10.467Z,99272.96
2024-03-14T04:45:42.558Z,99273.33
2024-03-14T04:48:11.559Z,99279.14
2024-03-14T04:50:42.036Z,99277.55
2024-03-14T04:53:11.715Z,99278.89
2024-03-14T04:55:41.124Z,99279.34
2024-03-14T04:58:10.038Z,99283.42
2024-03-14T05:00:39.117Z,99285.54
2024-03-14T05:03:08.867Z,99282.06
2024-03-14T05:05:38.387Z,99284.33
2024-03-14T05:08:07.583Z,99284.42
2024-03-14T05:10:36.541Z,99285.64
2024-03-14T05:13:06.164Z,99288.91
2024-03-14T05:15:35.101Z,99289.35
2024-03-14T05:18:04.670Z,99293.28
2024-03-14T05:20:33.714Z,99298.27
2024-03-14T05:23:02.842Z,99297.34
2024-03-14T05:25:31.757Z,99301.85
2024-03-14T05:28:00.650Z,99298.52
2024-03-14T05:30:29.691Z,99293.11
2024-03-14T05:33:01.016Z,99292.90
2024-03-14T05:35:29.995Z,99301.64
2024-03-14T05:37:59.082Z,99296.41
2024-03-14T05:40:28.296Z,99296.84
2024-03-14T05:42:57.756Z,99298.53
2024-03-14T05:45:26.740Z,99305.15
2024-03-14T05:48:11.168Z,99311.03
2024-03-14T05:50:40.294Z,99308.48
2024-03-14T05:53:09.597Z,99313.67
2024-03-14T05:55:38.635Z,99311.08
2024-03-14T05:58:07.817Z,99312.19
2024-03-14T06:00:36.812Z,99319.02
2024-03-14T06:03:06.030Z,99318.96
2024-03-14T06:05:35.626Z,99322.73
2024-03-14T06:08:05.243Z,99322.23
2024-03-14T06:10:34.015Z,99328.89
2024-03-14T06:13:02.971Z,99329.23
2024-03-14T06:15:32.407Z,99331.48
2024-03-14T06:18:01.501Z,99335.91
2024-03-14T06:20:32.317Z,99335.81
2024-03-14T06:23:03.597Z,99330.73
2024-03-14T06:25:32.801Z,99332.67
2024-03-14T06:28:04.170Z,99335.01
2024-03-14T06:30:34.647Z,99335.56
2024-03-14T06:33:03.750Z,99333.16
2024-03-14T06:35:33.508Z,99331.60
2024-03-14T06:38:02.373Z,99331.24
2024-03-14T06:40:31.433Z,99336.87
2024-03-14T06:43:00.332Z,99340.77
2024-03-14T06:45:29.233Z,99343.08
2024-03-14T06:47:58.378Z,99340.30
2024-03-14T06:50:27.511Z,99341.29
2024-03-14T06:52:56.440Z,99347.21
2024-03-14T06:55:26.493Z,99350.15
2024-03-14T06:57:55.349Z,99353.40
2024-03-14T07:00:26.453Z,99357.41
2024-03-14T07:02:55.582Z,99360.13
2024-03-14T07:05:26.237Z,99359.63
2024-03-14T07:07:55.276Z,99363.89
2024-03-14T07:10:24.377Z,99364.61
2024-03-14T07:12:53.355Z,99364.79
2024-03-14T07:15:23.971Z,99365.75
2024-03-14T07:17:53.640Z,99368.17
2024-03-14T07:20:26.436Z,99369.95
2024-03-14T07:22:55.937Z,99371.15
2024-03-14T07:25:26.149Z,99372.27
2024-03-14T07:27:54.949Z,99374.79
2024-03-14T07:30:26.637Z,99377.95
2024-03-14T07:32:56.052Z,99377.45
2024-03-14T07:35:25.437Z,99373.96
2024-03-14T07:37:54.287Z,99378.08
2024-03-14T07:40:34.960Z,99376.17
2024-03-14T07:43:04.224Z,99369.67
2024-03-14T07:45:33.309Z,99371.20
2024-03-14T07:48:03.730Z,99374.89
2024-03-14T07:50:32.916Z,99374.74
2024-03-14T07:53:01.987Z,99372.57
2024-03-14T07:55:30.976Z,99372.77
2024-03-14T07:58:00.233Z,99372.92
2024-03-14T08:00:33.377Z,99378.61
2024-03-14T08:03:02.918Z,99373.59
2024-03-14T08:05:34.620Z,99379.89
2024-03-14T08:08:14.688Z,99375.30
2024-03-14T08:10:50.101Z,99378.70
2024-03-14T08:13:23.349Z,99379.79
2024-03-14T08:15:56.917Z,99376.93
2024-03-14T08:18:26.784Z,99382.89
2024-03-14T08:20:59.955Z,99379.34
2024-03-14T08:23:29.811Z,99381.21
2024-03-14T08:25:59.249Z,99380.06
2024-03-14T08:28:28.246Z,99383.09
2024-03-14T08:30:59.572Z,99383.08
2024-03-14T08:33:29.757Z,99379.48
2024-03-14T08:36:01.512Z,99376.58
2024-03-14T08:38:32.282Z,99382.08
2024-03-14T08:41:01.761Z,99379.25
2024-03-14T08:43:32.533Z,99381.95
2024-03-14T08:46:02.821Z,99380.19
2024-03-14T08:48:33.063Z,99378.02
2024-03-14T08:51:03.097Z,99376.05
2024-03-14T08:53:52.086Z,99374.90
2024-03-14T08:56:21.394Z,99371.80
2024-03-14T08:58:58.620Z,99373.19
2024-03-14T09:01:31.495Z,99373.58
2024-03-14T09:04:01.134Z,99377.09
2024-03-14T09:06:32.941Z,99374.44
2024-03-14T09:09:05.975Z,99375.17
2024-03-14T09:11:35.201Z,99371.83
2024-03-14T09:14:07.161Z,99374.98
2024-03-14T09:16:39.044Z,99374.09
2024-03-14T09:19:08.134Z,99376.57
2024-03-14T09:21:37.700Z,99376.51
2024-03-14T09:24:13.441Z,99379.05
2024-03-14T09:26:43.914Z,99378.91
2024-03-14T09:29:15.580Z,99376.00
2024-03-14T09:31:47.009Z,99371.89
2024-03-14T09:34:17.390Z,99371.67
2024-03-14T09:36:52.161Z,99369.92
2024-03-14T09:39:23.471Z,99370.41
2024-03-14T09:41:53.561Z,99374.51
2024-03-14T09:44:25.032Z,99375.38
2024-03-14T09:47:08.329Z,99374.85
2024-03-14T09:49:37.555Z,99373.54
2024-03-14T09:52:07.379Z,99374.21
2024-03-14T09:54:36.752Z,99375.43
2024-03-14T09:57:06.380Z,99370.70
2024-03-14T09:59:35.903Z,99372.80
2024-03-14T10:02:08.218Z,99371.59
2024-03-14T10:04:37.093Z,99370.98
2024-03-14T10:07:06.112Z,99374.40
2024-03-14T10:09:36.255Z,99374.70
2024-03-14T10:12:11.740Z,99372.96
2024-03-14T10:14:41.909Z,99375.02
2024-03-14T10:17:12.562Z,99374.17
2024-03-14T10:19:42.480Z,99371.70
2024-03-14T10:22:13.515Z,99372.95
2024-03-14T10:24:43.432Z,99375.69
2024-03-14T10:27:12.738Z,99372.80
2024-03-14T10:29:41.873Z,99368.41
2024-03-14T10:32:13.421Z,99368.51
2024-03-14T10:34:44.988Z,99370.40
2024-03-14T10:37:17.387Z,99369.17
2024-03-14T10:39:55.732Z,99369.90
2024-03-14T10:42:25.871Z,99369.52
2024-03-14T10:44:55.250Z,99369.44
2024-03-14T10:47:24.735Z,99367.23
2024-03-14T10:49:55.478Z,99371.48
2024-03-14T10:52:24.892Z,99371.84
2024-03-14T10:54:54.891Z,99368.85
2024-03-14T10:57:26.229Z,99370.99
2024-03-14T10:59:55.549Z,99371.27
2024-03-14T11:02:24.483Z,99365.83
2024-03-14T11:04:53.883Z,99367.70
2024-03-14T11:07:25.797Z,99365.45
2024-03-14T11:10:00.471Z,99364.81
2024-03-14T11:12:33.932Z,99361.38
2024-03-14T11:15:09.399Z,99365.55
2024-03-14T11:17:42.656Z,99364.15
2024-03-14T11:20:19.828Z,99360.69
2024-03-14T11:22:49.533Z,99357.23
2024-03-14T11:25:19.093Z,99361.73
2024-03-14T11:27:49.474Z,99365.11
2024-03-14T11:30:20.773Z,99359.45
2024-03-14T11:32:57.287Z,99362.59
2024-03-14T11:35:31.361Z,99357.50
2024-03-14T11:38:00.436Z,99356.46
2024-03-14T11:40:32.289Z,99352.86
2024-03-14T11:43:02.026Z,99350.45
2024-03-14T11:45:33.720Z,99351.89
2024-03-14T11:48:03.967Z,99344.48
2024-03-14T11:50:35.218Z,99345.90
2024-03-14T11:53:08.055Z,99343.95
2024-03-14T11:55:37.376Z,99339.52
2024-03-14T11:58:18.732Z,99339.67
2024-03-14T12:00:49.773Z,99336.70
2024-03-14T12:03:20.013Z,99331.89
2024-03-14T12:05:57.670Z,99326.44
2024-03-14T12:08:26.705Z,99324.94
2024-03-14T12:10:57.419Z,99324.41
2024-03-14T12:13:29.557Z,99323.66
2024-03-14T12:16:05.605Z,99323.59
2024-03-14T12:18:35.098Z,99321.83
2024-03-14T12:21:04.296Z,99321.08
2024-03-14T12:23:34.604Z,99317.95
2024-03-14T12:26:06.757Z,99318.10
2024-03-14T12:28:37.170Z,99319.88
2024-03-14T12:31:06.588Z,99316.48
2024-03-14T12:33:36.064Z,99314.84
2024-03-14T12:36:07.559Z,99311.27
2024-03-14T12:38:37.544Z,99312.11
2024-03-14T12:41:06.708Z,99312.40
2024-03-14T12:43:35.605Z,99304.98
2024-03-14T12:46:05.002Z,99306.15
2024-03-14T12:48:33.939Z,99304.79
2024-03-14T12:51:13.952Z,99299.48
2024-03-14T12:53:43.208Z,99296.31
2024-03-14T12:56:12.523Z,99298.30
2024-03-14T12:58:41.697Z,99299.69
2024-03-14T13:01:11.178Z,99296.28
2024-03-14T13:03:40.192Z,99300.80
2024-03-14T13:06:11.041Z,99303.01
2024-03-14T13:08:40.998Z,99298.63
2024-03-14T13:11:17.154Z,99300.59
2024-03-14T13:13:47.815Z,99301.15
2024-03-14T13:16:24.733Z,99299.94
2024-03-14T13:18:57.493Z,99299.63
2024-03-14T13:21:31.981Z,99298.98
2024-03-14T13:24:04.256Z,99297.95
2024-03-14T13:26:34.018Z,99298.10
2024-03-14T13:29:02.839Z,99299.38
2024-03-14T13:31:31.917Z,99294.71
2024-03-14T13:34:01.572Z,99289.30
2024-03-14T13:36:38.253Z,99291.44
2024-03-14T13:39:09.018Z,99287.33
2024-03-14T13:44:12.177Z,99283.11
2024-03-14T13:46:46.139Z,99285.58
2024-03-14T13:49:16.251Z,99282.98
2024-03-14T13:51:45.296Z,99281.11
2024-03-14T13:54:19.400Z,99282.01
2024-03-14T13:56:51.962Z,99279.66
2024-03-14T13:59:20.776Z,99282.23
2024-03-14T14:01:50.140Z,99282.36
2024-03-14T14:04:18.961Z,99278.01
2024-03-14T14:06:49.468Z,99272.90
2024-03-14T14:09:21.697Z,99273.13
2024-03-14T14:11:50.557Z,99274.27
2024-03-14T14:14:19.676Z,99277.68
2024-03-14T14:16:49.842Z,99272.40
2024-03-14T14:19:18.838Z,99272.35
2024-03-14T14:21:47.859Z,99278.89
2024-03-14T14:24:18.415Z,99280.79
2024-03-14T14:26:49.327Z,99283.33
2024-03-14T14:29:20.487Z,99279.04
2024-03-14T14:31:52.462Z,99277.30
2024-03-14T14:34:21.249Z,99273.70
2024-03-14T14:36:50.330Z,99274.98
2024-03-14T14:39:20.885Z,99276.61
2024-03-14T14:41:50.178Z,99276.23
2024-03-14T14:44:19.002Z,99276.83
2024-03-14T14:46:48.437Z,99278.70
2024-03-14T14:49:17.582Z,99282.00
2024-03-14T14:51:47.077Z,99281.30
2024-03-14T14:54:15.944Z,99275.11
2024-03-14T14:56:45.979Z,99274.95
2024-03-14T14:59:14.769Z,99274.08
2024-03-14T15:01:44.441Z,99273.73
2024-03-14T15:04:14.904Z,99277.69
2024-03-14T15:06:44.273Z,99274.98
2024-03-14T15:09:16.505Z,99275.44
2024-03-14T15:11:48.557Z,99274.43
2024-03-14T15:14:17.700Z,99277.33
2024-03-14T15:16:46.769Z,99277.31
2024-03-14T15:19:17.371Z,99276.30
2024-03-14T15:21:49.244Z,99273.80
2024-03-14T15:24:20.506Z,99275.39
2024-03-14T15:26:50.209Z,99274.88
2024-03-14T15:29:20.914Z,99270.70
2024-03-14T15:31:51.258Z,99267.17
2024-03-14T15:34:20.250Z,99271.13
2024-03-14T15:36:49.105Z,99265.95
2024-03-14T15:39:19.600Z,99263.17
2024-03-14T15:41:48.601Z,99265.81
2024-03-14T15:44:18.519Z,99268.41
2024-03-14T15:46:49.606Z,99267.09
2024-03-14T15:49:18.819Z,99267.24
2024-03-14T15:51:47.886Z,99268.29
2024-03-14T15:54:17.335Z,99271.41
2024-03-14T15:56:49.578Z,99269.77
2024-03-14T15:59:19.297Z,99264.98
2024-03-14T16:01:49.683Z,99266.61
2024-03-14T16:04:18.618Z,99271.91
2024-03-14T16:06:49.680Z,99264.77
2024-03-14T16:09:22.213Z,99268.43
2024-03-14T16:11:51.333Z,99261.87
2024-03-14T16:14:20.263Z,99269.06
2024-03-14T16:16:49.059Z,99266.55
2024-03-14T16:19:20.419Z,99267.58
2024-03-14T16:21:51.687Z,99266.36
2024-03-14T16:24:24.341Z,99267.61
2024-03-14T16:26:54.491Z,99267.62
2024-03-14T16:29:23.503Z,99267.70
2024-03-14T16:31:52.962Z,99269.64
2024-03-14T16:34:21.944Z,99269.86
2024-03-14T16:36:52.921Z,99273.73
2024-03-14T16:39:22.723Z,99268.33
2024-03-14T16:41:51.797Z,99273.01
2024-03-14T16:44:21.093Z,99275.63
2024-03-14T16:46:50.301Z,99271.84
2024-03-14T16:49:19.140Z,99271.52
2024-03-14T16:51:49.087Z,99272.66
2024-03-14T16:54:23.524Z,99270.98
2024-03-14T16:56:53.596Z,99277.27
2024-03-14T16:59:22.380Z,99274.03
2024-03-14T17:01:51.514Z,99277.41
2024-03-14T17:04:20.566Z,99280.70
2024-03-14T17:06:49.596Z,99283.42
2024-03-14T17:09:19.359Z,99279.39
2024-03-14T17:11:48.622Z,99280.10
2024-03-14T17:14:17.636Z,99283.04
2024-03-14T17:16:52.776Z,99276.02
2024-03-14T17:19:28.665Z,99277.89
2024-03-14T17:21:57.776Z,99281.88
2024-03-14T17:24:26.773Z,99280.83
2024-03-14T17:26:57.265Z,99280.95
2024-03-14T17:29:30.767Z,99279.20
2024-03-14T17:32:01.315Z,99276.02
2024-03-14T17:34:31.282Z,99279.05
2024-03-14T17:37:02.745Z,99278.75
2024-03-14T17:39:32.576Z,99280.74
2024-03-14T17:42:02.595Z,99278.02
2024-03-14T17:44:32.601Z,99280.73
2024-03-14T17:47:02.167Z,99282.80
2024-03-14T17:49:31.139Z,99286.73
2024-03-14T17:52:00.162Z,99284.73
2024-03-14T17:54:29.447Z,99283.79
2024-03-14T17:57:01.426Z,99291.31
2024-03-14T17:59:30.998Z,99286.48
2024-03-14T18:02:02.842Z,99286.88
2024-03-14T18:04:33.262Z,99291.61
2024-03-14T18:07:02.530Z,99290.59
2024-03-14T18:09:31.578Z,99290.29
2024-03-14T18:12:02.944Z,99293.23
2024-03-14T18:14:32.234Z,99292.59
2024-03-14T18:17:02.492Z,99289.48
2024-03-14T18:19:31.578Z,99290.08
2024-03-14T18:22:00.836Z,99289.41
2024-03-14T18:24:31.042Z,99286.40
2024-03-14T18:27:01.168Z,99289.86
2024-03-14T18:29:30.382Z,99289.38
2024-03-14T18:31:59.903Z,99290.00
2024-03-14T18:34:29.706Z,99285.55
2024-03-14T18:36:59.482Z,99288.23
2024-03-14T18:39:31.011Z,99287.05
2024-03-14T18:42:06.731Z,99290.96
2024-03-14T18:44:44.738Z,99291.55
2024-03-14T18:47:13.628Z,99291.42
2024-03-14T18:49:44.054Z,99289.42
2024-03-14T18:52:14.281Z,99288.60
2024-03-14T18:54:49.427Z,99291.27
2024-03-14T18:57:19.369Z,99290.20
2024-03-14T18:59:52.474Z,99292.23
2024-03-14T19:02:23.272Z,99292.66
2024-03-14T19:04:53.633Z,99291.80
2024-03-14T19:07:23.045Z,99292.29
2024-03-14T19:09:52.670Z,99289.02
2024-03-14T19:12:22.759Z,99289.34
2024-03-14T19:14:53.248Z,99293.58
2024-03-14T19:17:23.360Z,99296.09
2024-03-14T19:19:54.343Z,99296.95
2024-03-14T19:22:24.657Z,99296.09
2024-03-14T19:24:53.708Z,99294.98
2024-03-14T19:27:30.891Z,99292.98
2024-03-14T19:30:01.754Z,99294.29
2024-03-14T19:32:32.019Z,99293.52
2024-03-14T19:35:01.138Z,99290.52
2024-03-14T19:37:31.254Z,99292.75
2024-03-14T19:40:02.153Z,99291.98
2024-03-14T19:42:32.309Z,99294.67
2024-03-14T19:45:02.485Z,99288.80
2024-03-14T19:47:32.370Z,99292.96
2024-03-14T19:50:02.667Z,99290.69
2024-03-14T19:52:32.112Z,99291.35
2024-03-14T19:55:01.539Z,99293.76
2024-03-14T19:57:31.930Z,99286.67
2024-03-14T20:00:01.156Z,99287.69
2024-03-14T20:02:42.373Z,99285.58
2024-03-14T20:05:12.359Z,99283.54
2024-03-14T20:07:42.236Z,99282.95
2024-03-14T20:10:15.746Z,99278.64
2024-03-14T20:12:46.474Z,99275.41
2024-03-14T20:15:16.227Z,99271.65
2024-03-14T20:17:46.471Z,99269.24
2024-03-14T20:20:17.386Z,99268.77
2024-03-14T20:22:46.680Z,99265.63
2024-03-14T20:25:18.601Z,99263.05
2024-03-14T20:27:48.276Z,99261.16
2024-03-14T20:30:18.059Z,99258.52
2024-03-14T20:32:48.377Z,99260.70
2024-03-14T20:35:18.942Z,99257.59
2024-03-14T20:37:52.493Z,99258.77
2024-03-14T20:40:35.190Z,99257.86
2024-03-14T20:43:06.158Z,99253.89
2024-03-14T20:45:36.804Z,99256.59
2024-03-14T20:48:07.407Z,99255.63
2024-03-14T20:50:36.576Z,99253.13
2024-03-14T20:53:06.398Z,99254.10
2024-03-14T20:55:56.019Z,99256.95
2024-03-14T20:58:31.288Z,99259.42
2024-03-14T21:01:03.086Z,99257.19
2024-03-14T21:03:33.916Z,99256.92
2024-03-14T21:06:04.116Z,99256.69
2024-03-14T21:08:33.826Z,99258.39
2024-03-14T21:11:03.936Z,99252.55
2024-03-14T21:13:33.018Z,99256.28
2024-03-14T21:16:02.058Z,99253.30
2024-03-14T21:18:32.431Z,99248.55
2024-03-14T21:21:01.547Z,99252.36
2024-03-14T21:23:30.896Z,99249.65
2024-03-14T21:25:59.878Z,99246.08
2024-03-14T21:28:30.098Z,99243.96
2024-03-14T21:30:59.974Z,99241.48
2024-03-14T21:33:29.355Z,99242.80
2024-03-14T21:35:58.974Z,99244.50
2024-03-14T21:38:28.593Z,99247.31
2024-03-14T21:40:57.565Z,99248.83
2024-03-14T21:43:26.552Z,99250.44
2024-03-14T21:45:55.340Z,99249.59
2024-03-14T21:48:25.088Z,99253.76
2024-03-14T21:50:54.094Z,99255.18
2024-03-14T21:53:23.087Z,99259.72
2024-03-14T21:55:51.996Z,99259.98
2024-03-14T21:58:21.577Z,99260.44
2024-03-14T22:00:50.547Z,99262.70
2024-03-14T22:03:19.789Z,99263.65
2024-03-14T22:05:48.861Z,99257.27
2024-03-14T22:08:21.041Z,99259.62
2024-03-14T22:10:49.827Z,99258.77
2024-03-14T22:13:18.818Z,99254.63
2024-03-14T22:15:47.715Z,99254.80
2024-03-14T22:18:19.762Z,99255.59
2024-03-14T22:20:49.233Z,99258.65
2024-03-14T22:23:18.413Z,99257.36
2024-03-14T22:25:47.396Z,99259.59
2024-03-14T22:28:16.198Z,99256.70
2024-03-14T22:30:50.278Z,99257.42
2024-03-14T22:33:24.960Z,99253.55
2024-03-14T22:35:53.858Z,99252.42
2024-03-14T22:38:23.263Z,99249.77
2024-03-14T22:40:52.271Z,99247.46
2024-03-14T22:43:21.152Z,99245.67
2024-03-14T22:45:50.062Z,99240.69
2024-03-14T22:48:19.397Z,99241.58
2024-03-14T22:50:48.382Z,99235.95
2024-03-14T22:53:17.893Z,99233.54
2024-03-14T22:55:46.679Z,99236.27
2024-03-14T22:58:15.604Z,99230.06
2024-03-14T23:00:56.291Z,99231.50
2024-03-14T23:03:26.025Z,99237.77
2024-03-14T23:05:55.542Z,99237.27
2024-03-14T23:08:26.966Z,99237.05
2024-03-14T23:10:55.863Z,99235.21
2024-03-14T23:13:24.670Z,99235.02
2024-03-14T23:15:54.180Z,99234.90
2024-03-14T23:18:23.538Z,99240.76
2024-03-14T23:20:53.639Z,99238.37
2024-03-14T23:23:22.410Z,99238.14
2024-03-14T23:25:51.306Z,99240.59
2024-03-14T23:28:20.259Z,99243.19
2024-03-14T23:30:51.740Z,99242.35
2024-03-14T23:33:20.751Z,99239.49
2024-03-14T23:35:50.296Z,99238.11
2024-03-14T23:38:20.220Z,99237.21
2024-03-14T23:40:49.117Z,99236.77
2024-03-14T23:43:18.015Z,99236.85
2024-03-14T23:45:46.954Z,99236.37
2024-03-14T23:48:16.673Z,99238.84
2024-03-14T23:50:46.056Z,99235.79
2024-03-14T23:53:15.036Z,99234.73
2024-03-14T23:55:43.987Z,99238.30
2024-03-14T23:58:13.299Z,99235.84
